Time;durP1;ratioP1;P1;durP2;ratioP2;P2;SDS_P1;SDS_P2;PMS_P1;PMS_P2;Temp;Humidity;BMP_temperature;BMP_pressure;BME280_temperature;BME280_humidity;BME280_pressure;Samples;Min_cycle;Max_cycle;Signal;HPM_P1;HPM_P2
2023/01/15 00:01:33;;;;;;;1.63;1.10;;;19.40;43.60;;;;;;4938788;28;20898;-83
2023/01/15 00:03:59;;;;;;;1.00;0.90;;;19.40;43.60;;;;;;4938624;28;20321;-83
2023/01/15 00:06:27;;;;;;;1.40;1.30;;;19.40;43.70;;;;;;4940147;28;20447;-83
2023/01/15 00:08:53;;;;;;;1.20;1.10;;;19.40;43.60;;;;;;4947117;28;24732;-83
2023/01/15 00:11:20;;;;;;;4.03;1.20;;;19.40;43.70;;;;;;4942757;28;20517;-83
2023/01/15 00:13:46;;;;;;;1.40;1.30;;;19.40;44.50;;;;;;4951935;28;20514;-84
2023/01/15 00:16:18;;;;;;;1.30;1.20;;;19.40;43.60;;;;;;4960311;28;20538;-83
2023/01/15 00:18:48;;;;;;;1.53;1.10;;;19.40;43.60;;;;;;4957122;28;20446;-83
2023/01/15 00:21:13;;;;;;;1.10;1.00;;;19.40;43.60;;;;;;4959429;28;20445;-83
2023/01/15 00:29:12;;;;;;;1.73;1.63;;;19.40;43.60;;;;;;4937194;28;20460;-82
2023/01/15 00:31:38;;;;;;;0.97;0.87;;;19.40;43.60;;;;;;4940893;28;21096;-83
2023/01/15 00:34:03;;;;;;;1.10;1.00;;;19.40;43.50;;;;;;4937061;28;20272;-83
2023/01/15 00:36:29;;;;;;;1.00;0.90;;;19.30;43.50;;;;;;4958028;28;20619;-83
2023/01/15 00:38:54;;;;;;;1.43;1.00;;;19.40;43.50;;;;;;4956768;28;20233;-83
2023/01/15 00:41:20;;;;;;;1.37;1.27;;;19.30;43.50;;;;;;4957535;28;20239;-83
2023/01/15 00:43:46;;;;;;;1.10;1.00;;;19.30;43.50;;;;;;4954497;28;20764;-83
2023/01/15 00:46:11;;;;;;;1.20;1.10;;;19.30;43.50;;;;;;4950238;28;20233;-83
2023/01/15 00:48:38;;;;;;;1.10;1.00;;;19.30;43.50;;;;;;4936790;28;20684;-83
2023/01/15 00:51:04;;;;;;;1.43;1.10;;;19.30;43.30;;;;;;4956681;28;20669;-83
2023/01/15 00:53:30;;;;;;;1.10;1.00;;;19.40;43.50;;;;;;4959251;28;20466;-83
2023/01/15 00:55:56;;;;;;;1.00;0.90;;;19.30;43.40;;;;;;4954514;28;21255;-84
2023/01/15 00:58:22;;;;;;;1.20;1.10;;;19.40;43.50;;;;;;4954886;28;20430;-84
2023/01/15 01:00:53;;;;;;;0.90;0.90;;;19.40;44.20;;;;;;4959486;28;20256;-83
2023/01/15 01:03:18;;;;;;;1.13;1.03;;;19.40;43.40;;;;;;4954651;28;20319;-83
2023/01/15 01:05:44;;;;;;;1.20;1.00;;;19.40;43.50;;;;;;4960096;28;20433;-83
2023/01/15 01:08:09;;;;;;;1.77;1.00;;;19.30;43.40;;;;;;4955356;28;20318;-83
2023/01/15 01:10:35;;;;;;;1.43;1.33;;;19.30;43.50;;;;;;4958459;28;20234;-84
2023/01/15 01:13:00;;;;;;;1.30;1.20;;;19.30;43.50;;;;;;4958374;28;20216;-83
2023/01/15 01:15:26;;;;;;;0.80;0.70;;;19.30;43.50;;;;;;4957919;28;20213;-84
2023/01/15 01:17:51;;;;;;;1.07;0.97;;;19.30;43.30;;;;;;4954895;28;20599;-84
2023/01/15 01:20:17;;;;;;;1.10;0.90;;;19.30;43.30;;;;;;4955218;28;21002;-83
2023/01/15 01:22:43;;;;;;;1.53;0.93;;;19.30;43.20;;;;;;4937854;28;20677;-83
2023/01/15 01:25:09;;;;;;;0.90;0.83;;;19.30;43.20;;;;;;4959745;28;20430;-84
2023/01/15 01:27:34;;;;;;;1.00;0.90;;;19.30;43.20;;;;;;4954843;28;20224;-83
2023/01/15 01:30:00;;;;;;;0.97;0.87;;;19.30;43.30;;;;;;4956364;28;20283;-83
2023/01/15 01:32:26;;;;;;;1.20;1.10;;;19.30;43.30;;;;;;4958829;28;20225;-84
2023/01/15 01:34:51;;;;;;;1.20;0.90;;;19.30;43.50;;;;;;4951075;28;20221;-83
2023/01/15 01:37:17;;;;;;;1.10;1.00;;;19.30;43.20;;;;;;4956501;28;20227;-83
2023/01/15 01:39:42;;;;;;;1.27;1.10;;;19.30;43.20;;;;;;4956432;28;20449;-83
2023/01/15 01:42:12;;;;;;;1.73;1.13;;;19.30;43.30;;;;;;4955831;28;20248;-84
2023/01/15 01:44:38;;;;;;;1.07;0.97;;;19.30;43.30;;;;;;4937336;28;20228;-83
2023/01/15 01:47:10;;;;;;;1.20;0.93;;;19.30;43.40;;;;;;4957858;28;20449;-84
2023/01/15 01:49:38;;;;;;;1.03;0.93;;;19.30;43.40;;;;;;4935661;28;20701;-83
2023/01/15 01:52:14;;;;;;;0.90;0.80;;;19.30;43.40;;;;;;4945998;28;20457;-84
2023/01/15 01:54:41;;;;;;;1.00;0.90;;;19.30;43.30;;;;;;4956151;28;20441;-83
2023/01/15 01:57:08;;;;;;;1.13;0.80;;;19.30;43.40;;;;;;4960223;28;20437;-84
2023/01/15 01:59:35;;;;;;;1.03;0.93;;;19.30;43.40;;;;;;4953050;28;20474;-83
2023/01/15 02:02:00;;;;;;;0.93;0.70;;;19.30;43.30;;;;;;4952652;28;20430;-83
2023/01/15 02:04:27;;;;;;;0.90;0.90;;;19.30;43.20;;;;;;4935079;28;20422;-83
2023/01/15 02:06:54;;;;;;;1.07;0.97;;;19.30;43.30;;;;;;4954151;28;20241;-83
2023/01/15 02:09:19;;;;;;;0.80;0.80;;;19.30;43.90;;;;;;4954008;28;20472;-83
2023/01/15 02:11:46;;;;;;;1.00;0.90;;;19.30;43.20;;;;;;4960604;28;20570;-84
2023/01/15 02:14:21;;;;;;;0.97;0.87;;;19.30;43.20;;;;;;4955451;28;20229;-83
2023/01/15 02:16:59;;;;;;;1.00;0.80;;;19.30;43.20;;;;;;4958166;28;20796;-83
2023/01/15 02:19:35;;;;;;;0.80;0.70;;;19.30;43.20;;;;;;4956751;28;20436;-84
2023/01/15 02:22:25;;;;;;;0.90;0.80;;;19.30;43.20;;;;;;4945281;28;20936;-84
2023/01/15 02:25:11;;;;;;;0.80;0.73;;;19.30;43.00;;;;;;4952823;28;20466;-84
2023/01/15 02:27:42;;;;;;;0.93;0.80;;;19.30;43.10;;;;;;4956078;28;21130;-83
2023/01/15 02:30:32;;;;;;;1.10;1.00;;;19.30;43.00;;;;;;4954003;28;20436;-83
2023/01/15 02:33:06;;;;;;;0.83;0.70;;;19.30;43.10;;;;;;4948543;28;20453;-83
2023/01/15 02:35:59;;;;;;;0.80;0.70;;;19.30;43.10;;;;;;4954522;28;20478;-83
2023/01/15 02:38:30;;;;;;;0.80;0.73;;;19.30;43.00;;;;;;4949536;28;20455;-83
2023/01/15 02:40:59;;;;;;;0.80;0.80;;;19.30;43.10;;;;;;4959160;28;20527;-83
2023/01/15 02:43:28;;;;;;;0.83;0.83;;;19.30;43.00;;;;;;4958702;28;20480;-83
2023/01/15 02:45:57;;;;;;;0.90;0.80;;;19.30;43.00;;;;;;4959961;28;20522;-83
2023/01/15 02:48:26;;;;;;;0.80;0.80;;;19.20;42.90;;;;;;4959855;28;20470;-83
2023/01/15 02:51:13;;;;;;;0.83;0.73;;;19.20;42.80;;;;;;4959625;28;20530;-83
2023/01/15 02:53:42;;;;;;;0.87;0.73;;;19.30;42.90;;;;;;4959397;28;20441;-83
2023/01/15 02:56:15;;;;;;;0.77;0.77;;;19.30;43.00;;;;;;4952245;28;20445;-83
2023/01/15 02:58:43;;;;;;;0.80;0.70;;;19.20;42.90;;;;;;4952977;28;20448;-83
2023/01/15 03:01:25;;;;;;;1.00;0.80;;;19.30;43.10;;;;;;4954503;28;20526;-83
2023/01/15 03:03:58;;;;;;;0.73;0.60;;;19.30;43.10;;;;;;4949414;28;20977;-83
2023/01/15 03:06:32;;;;;;;1.00;0.80;;;19.20;42.70;;;;;;4957384;28;21310;-83
2023/01/15 03:08:58;;;;;;;0.90;0.70;;;19.30;43.40;;;;;;4946933;28;20937;-83
2023/01/15 03:11:24;;;;;;;1.00;0.80;;;19.20;42.70;;;;;;4956998;28;20543;-83
2023/01/15 03:13:56;;;;;;;1.67;0.70;;;19.20;42.70;;;;;;4961988;28;21426;-85
2023/01/15 03:16:37;;;;;;;0.70;0.60;;;19.20;42.80;;;;;;4959372;28;20248;-83
2023/01/15 03:19:12;;;;;;;0.80;0.80;;;19.20;42.80;;;;;;4937235;28;20437;-84
2023/01/15 03:21:55;;;;;;;0.70;0.60;;;19.20;42.80;;;;;;4939199;28;20850;-83
2023/01/15 03:24:41;;;;;;;0.67;0.60;;;19.20;42.90;;;;;;4942190;28;21013;-84
2023/01/15 03:27:07;;;;;;;1.20;0.80;;;19.20;42.80;;;;;;4953933;28;20467;-83
2023/01/15 03:29:38;;;;;;;0.70;0.70;;;19.20;42.90;;;;;;4952430;28;20497;-83
2023/01/15 03:32:04;;;;;;;0.93;0.80;;;19.20;42.80;;;;;;4946827;28;20533;-83
2023/01/15 03:34:45;;;;;;;0.90;0.70;;;19.20;42.50;;;;;;4958829;28;20524;-83
2023/01/15 03:37:11;;;;;;;0.97;0.80;;;19.20;42.60;;;;;;4938521;28;20522;-83
2023/01/15 03:39:37;;;;;;;0.73;0.63;;;19.20;42.60;;;;;;4940818;28;20559;-83
2023/01/15 03:42:29;;;;;;;0.70;0.67;;;19.20;42.60;;;;;;4961003;28;20439;-83
2023/01/15 03:45:29;;;;;;;0.70;0.70;;;19.20;42.60;;;;;;4951531;28;20478;-83
2023/01/15 03:48:09;;;;;;;0.80;0.60;;;19.20;42.50;;;;;;4942237;28;20511;-83
2023/01/15 03:50:41;;;;;;;0.93;0.83;;;19.20;42.30;;;;;;4944128;28;20454;-82
2023/01/15 03:53:30;;;;;;;1.20;1.10;;;19.20;42.40;;;;;;4941591;28;20489;-83
2023/01/15 03:56:07;;;;;;;0.80;0.70;;;19.20;42.30;;;;;;4935731;28;20513;-82
2023/01/15 03:58:52;;;;;;;1.17;0.80;;;19.20;41.90;;;;;;4953434;28;20470;-83
2023/01/15 04:01:23;;;;;;;0.90;0.70;;;19.20;41.70;;;;;;4956714;28;20444;-82
2023/01/15 04:03:50;;;;;;;1.00;0.70;;;19.20;41.70;;;;;;4958030;28;20751;-82
2023/01/15 04:06:17;;;;;;;0.90;0.80;;;19.20;41.60;;;;;;4959718;28;20506;-83
2023/01/15 04:08:44;;;;;;;1.00;0.90;;;19.20;41.40;;;;;;4958553;28;20471;-83
2023/01/15 04:11:10;;;;;;;0.67;0.60;;;19.20;41.50;;;;;;4957559;28;20497;-84
2023/01/15 04:13:35;;;;;;;0.87;0.70;;;19.20;41.20;;;;;;4957068;28;20450;-83
2023/01/15 04:16:01;;;;;;;0.70;0.60;;;19.20;41.30;;;;;;4958986;28;20220;-83
2023/01/15 04:18:27;;;;;;;2.67;0.90;;;19.20;41.40;;;;;;4958058;28;20303;-83
2023/01/15 04:20:54;;;;;;;0.77;0.60;;;19.20;41.50;;;;;;4956571;28;20719;-83
2023/01/15 04:23:20;;;;;;;0.90;0.60;;;19.20;41.70;;;;;;4957536;28;20773;-84
2023/01/15 04:25:45;;;;;;;0.80;0.60;;;19.20;41.80;;;;;;4957970;28;20450;-83
2023/01/15 04:28:11;;;;;;;0.70;0.60;;;19.20;41.60;;;;;;4955522;28;20370;-82
2023/01/15 04:30:37;;;;;;;0.80;0.70;;;19.20;41.80;;;;;;4956622;28;20223;-83
2023/01/15 04:33:03;;;;;;;1.10;0.57;;;19.20;41.90;;;;;;4961126;28;20461;-84
2023/01/15 04:35:29;;;;;;;0.70;0.60;;;19.20;41.80;;;;;;4957991;28;20220;-83
2023/01/15 04:37:59;;;;;;;0.90;0.63;;;19.20;42.00;;;;;;4947061;28;20213;-83
2023/01/15 04:45:55;;;;;;;0.87;0.70;;;19.20;42.30;;;;;;4957170;28;20568;-83
2023/01/15 04:48:20;;;;;;;0.70;0.63;;;19.20;42.40;;;;;;4940267;28;21855;-83
2023/01/15 04:50:46;;;;;;;1.40;0.93;;;19.20;43.20;;;;;;4955308;28;20264;-83
2023/01/15 04:53:11;;;;;;;0.73;0.70;;;19.20;42.60;;;;;;4946915;28;20227;-83
2023/01/15 04:55:37;;;;;;;0.80;0.60;;;19.20;42.60;;;;;;4957924;28;20220;-83
2023/01/15 04:58:02;;;;;;;0.80;0.70;;;19.20;42.60;;;;;;4953182;28;20271;-83
2023/01/15 05:00:28;;;;;;;0.80;0.50;;;19.20;42.70;;;;;;4954009;28;20266;-83
2023/01/15 05:02:53;;;;;;;0.90;0.70;;;19.30;42.80;;;;;;4957780;28;20676;-84
2023/01/15 05:05:19;;;;;;;0.80;0.60;;;19.30;42.80;;;;;;4958441;28;20303;-83
2023/01/15 05:07:44;;;;;;;0.90;0.80;;;19.30;42.90;;;;;;4957116;28;20702;-82
2023/01/15 05:10:10;;;;;;;0.80;0.70;;;19.30;42.90;;;;;;4945760;28;20244;-83
2023/01/15 05:12:36;;;;;;;0.60;0.60;;;19.30;42.90;;;;;;4958410;28;20279;-83
2023/01/15 05:15:01;;;;;;;0.80;0.60;;;19.30;43.00;;;;;;4928610;28;20233;-83
2023/01/15 05:17:27;;;;;;;0.73;0.67;;;19.30;43.00;;;;;;4944108;28;20241;-84
2023/01/15 05:19:52;;;;;;;0.80;0.70;;;19.30;43.00;;;;;;4949774;28;20224;-84
2023/01/15 05:22:18;;;;;;;0.80;0.63;;;19.30;43.00;;;;;;4950734;28;20317;-85
2023/01/15 05:24:43;;;;;;;0.70;0.60;;;19.30;43.10;;;;;;4937374;28;20905;-83
2023/01/15 05:27:09;;;;;;;0.77;0.60;;;19.30;43.10;;;;;;4937905;28;20304;-83
2023/01/15 05:29:35;;;;;;;1.20;0.80;;;19.30;43.10;;;;;;4953625;28;20340;-84
2023/01/15 05:32:00;;;;;;;0.80;0.70;;;19.30;43.20;;;;;;4938111;28;20570;-84
2023/01/15 05:34:26;;;;;;;0.70;0.60;;;19.30;43.10;;;;;;4941842;28;20474;-83
2023/01/15 05:36:51;;;;;;;1.00;0.70;;;19.30;43.10;;;;;;4947957;28;20235;-84
2023/01/15 05:39:17;;;;;;;1.13;0.80;;;19.30;43.10;;;;;;4957782;28;20625;-84
2023/01/15 05:41:49;;;;;;;0.70;0.70;;;19.30;43.10;;;;;;4957506;28;20221;-83
2023/01/15 05:44:26;;;;;;;0.80;0.60;;;19.30;43.10;;;;;;4943503;28;20612;-83
2023/01/15 05:46:54;;;;;;;0.70;0.67;;;19.30;43.10;;;;;;4961457;28;20470;-83
2023/01/15 05:49:22;;;;;;;0.93;0.60;;;19.30;43.20;;;;;;4961395;28;20521;-83
2023/01/15 05:51:49;;;;;;;1.00;0.80;;;19.30;43.10;;;;;;4960681;28;20477;-84
2023/01/15 05:54:23;;;;;;;0.70;0.60;;;19.30;43.10;;;;;;4962446;28;20437;-84
2023/01/15 05:56:49;;;;;;;0.80;0.60;;;19.30;43.10;;;;;;4958419;28;20984;-84
2023/01/15 05:59:16;;;;;;;1.07;0.60;;;19.30;43.20;;;;;;4963536;28;20481;-83
2023/01/15 06:01:42;;;;;;;0.70;0.70;;;19.30;43.10;;;;;;4960111;28;20433;-83
2023/01/15 06:04:09;;;;;;;1.00;0.90;;;19.30;43.10;;;;;;4962017;28;20432;-84
2023/01/15 06:06:35;;;;;;;0.70;0.60;;;19.30;43.20;;;;;;4962046;28;20251;-83
2023/01/15 06:09:01;;;;;;;0.83;0.60;;;19.30;43.20;;;;;;4962389;28;20451;-83
2023/01/15 06:11:27;;;;;;;0.70;0.60;;;19.30;43.10;;;;;;4960928;28;20252;-83
2023/01/15 06:13:53;;;;;;;0.70;0.53;;;19.30;43.10;;;;;;4959001;28;20440;-85
2023/01/15 06:16:20;;;;;;;0.73;0.70;;;19.40;43.20;;;;;;4962423;28;20451;-83
2023/01/15 06:18:45;;;;;;;0.80;0.70;;;19.40;43.20;;;;;;4963000;28;20268;-83
2023/01/15 06:21:12;;;;;;;0.60;0.50;;;19.40;43.30;;;;;;4961188;28;20529;-85
2023/01/15 06:23:38;;;;;;;1.97;0.70;;;19.40;43.20;;;;;;4958810;28;20235;-83
2023/01/15 06:26:11;;;;;;;0.80;0.80;;;19.40;43.30;;;;;;4960075;28;20808;-84
2023/01/15 06:28:36;;;;;;;1.87;0.80;;;19.40;43.20;;;;;;4959724;28;20459;-83
2023/01/15 06:31:06;;;;;;;0.80;0.70;;;19.40;43.30;;;;;;4957226;28;20466;-83
2023/01/15 06:33:32;;;;;;;0.80;0.70;;;19.40;43.20;;;;;;4943634;28;20228;-84
2023/01/15 06:36:02;;;;;;;0.70;0.70;;;19.40;43.20;;;;;;4956806;28;20455;-84
2023/01/15 06:38:28;;;;;;;1.03;0.70;;;19.40;43.20;;;;;;4947584;28;20961;-84
2023/01/15 06:40:53;;;;;;;0.90;0.70;;;19.40;43.20;;;;;;4960506;28;20489;-84
2023/01/15 06:48:48;;;;;;;0.67;0.57;;;19.40;43.20;;;;;;4945311;28;20576;-83
2023/01/15 06:51:17;;;;;;;0.63;0.57;;;19.40;43.20;;;;;;4949759;28;20441;-84
2023/01/15 06:53:43;;;;;;;0.70;0.60;;;19.40;43.20;;;;;;4960272;28;21024;-83
2023/01/15 06:56:08;;;;;;;0.67;0.53;;;19.40;43.10;;;;;;4958647;28;20430;-83
2023/01/15 06:58:34;;;;;;;0.87;0.60;;;19.40;43.10;;;;;;4941390;28;20261;-84
2023/01/15 07:00:59;;;;;;;0.70;0.60;;;19.40;43.10;;;;;;4938170;28;20225;-83
2023/01/15 07:03:25;;;;;;;0.70;0.63;;;19.40;43.20;;;;;;4940795;28;20236;-83
2023/01/15 07:05:51;;;;;;;0.80;0.70;;;19.40;43.20;;;;;;4943171;28;20221;-83
2023/01/15 07:08:16;;;;;;;1.50;0.60;;;19.40;43.20;;;;;;4949565;28;20809;-83
2023/01/15 07:10:42;;;;;;;1.07;0.80;;;19.40;43.10;;;;;;4943354;28;20222;-83
2023/01/15 07:13:10;;;;;;;0.73;0.63;;;19.40;43.10;;;;;;4943093;28;20229;-84
2023/01/15 07:15:39;;;;;;;0.70;0.60;;;19.40;43.10;;;;;;4958348;28;20220;-83
2023/01/15 07:18:05;;;;;;;1.00;0.63;;;19.40;43.10;;;;;;4962645;28;20454;-83
2023/01/15 07:20:30;;;;;;;1.07;0.60;;;19.40;43.10;;;;;;4964794;28;21005;-83
2023/01/15 07:22:56;;;;;;;0.67;0.50;;;19.40;43.10;;;;;;4940857;28;20708;-83
2023/01/15 07:25:21;;;;;;;1.10;0.60;;;19.40;43.10;;;;;;4961948;28;20676;-83
2023/01/15 07:27:47;;;;;;;0.87;0.60;;;19.40;43.10;;;;;;4963061;28;20296;-83
2023/01/15 07:30:13;;;;;;;0.90;0.80;;;19.40;43.10;;;;;;4963005;28;20838;-84
2023/01/15 07:32:40;;;;;;;0.70;0.50;;;19.40;43.10;;;;;;4963401;28;20236;-84
2023/01/15 07:35:05;;;;;;;0.80;0.60;;;19.40;43.10;;;;;;4962451;28;20438;-83
2023/01/15 07:37:31;;;;;;;1.20;0.90;;;19.40;43.10;;;;;;4964934;28;20467;-83
2023/01/15 07:39:56;;;;;;;1.10;0.70;;;19.40;43.10;;;;;;4960957;28;20591;-83
2023/01/15 07:50:38;;;;;;;0.70;0.60;;;19.40;43.00;;;;;;4950459;28;20486;-84
2023/01/15 07:53:03;;;;;;;0.97;0.60;;;19.40;43.00;;;;;;4956757;28;20456;-87
2023/01/15 07:55:29;;;;;;;1.23;0.77;;;19.40;43.00;;;;;;4938979;28;20820;-83
2023/01/15 07:57:55;;;;;;;0.73;0.60;;;19.40;42.90;;;;;;4938456;28;20591;-84
2023/01/15 08:00:23;;;;;;;3.43;0.80;;;19.40;42.80;;;;;;4940513;28;20225;-83
2023/01/15 08:02:49;;;;;;;3.73;0.60;;;19.50;42.90;;;;;;4956258;28;20339;-83
2023/01/15 08:05:15;;;;;;;1.37;0.70;;;19.50;43.70;;;;;;4961925;28;20507;-84
2023/01/15 08:07:42;;;;;;;0.80;0.60;;;19.50;42.90;;;;;;4942044;28;20346;-83
2023/01/15 08:10:10;;;;;;;1.33;0.60;;;19.50;42.90;;;;;;4954767;28;20418;-83
2023/01/15 08:15:20;;;;;;;0.83;0.60;;;19.40;42.80;;;;;;4939321;28;20527;-83
2023/01/15 08:17:47;;;;;;;4.53;0.70;;;19.40;43.60;;;;;;4945109;28;20565;-83
2023/01/15 08:20:13;;;;;;;0.80;0.70;;;19.40;42.80;;;;;;4939087;28;20217;-83
2023/01/15 08:22:39;;;;;;;0.70;0.53;;;19.40;42.80;;;;;;4941884;28;21005;-83
2023/01/15 08:25:05;;;;;;;8.00;0.90;;;19.40;42.80;;;;;;4951815;28;20732;-84
2023/01/15 08:27:31;;;;;;;1.77;0.70;;;19.40;42.80;;;;;;4953958;28;20482;-83
2023/01/15 08:29:56;;;;;;;0.80;0.60;;;19.40;42.80;;;;;;4965021;28;20443;-84
2023/01/15 08:32:23;;;;;;;1.63;0.70;;;19.40;42.80;;;;;;4964374;28;20217;-85
2023/01/15 08:34:49;;;;;;;0.90;0.70;;;19.40;42.80;;;;;;4948430;28;20224;-84
2023/01/15 08:37:14;;;;;;;1.60;0.80;;;19.40;42.80;;;;;;4946586;28;20498;-84
2023/01/15 08:39:40;;;;;;;1.10;0.80;;;19.40;42.90;;;;;;4939863;28;20245;-84
2023/01/15 08:42:05;;;;;;;1.20;0.87;;;19.40;43.00;;;;;;4942567;28;20284;-84
2023/01/15 08:44:31;;;;;;;2.13;0.80;;;19.40;43.00;;;;;;4951522;28;20669;-84
2023/01/15 08:46:57;;;;;;;1.87;0.70;;;19.40;43.00;;;;;;4945810;28;20256;-83
2023/01/15 08:49:23;;;;;;;0.83;0.60;;;19.30;42.90;;;;;;4945071;28;20986;-84
2023/01/15 08:51:50;;;;;;;1.00;0.70;;;19.40;43.00;;;;;;4947855;28;20696;-84
2023/01/15 08:54:19;;;;;;;1.07;0.60;;;19.40;43.00;;;;;;4949389;28;20229;-84
2023/01/15 08:56:45;;;;;;;2.50;0.70;;;19.30;43.00;;;;;;4961615;28;20520;-84
2023/01/15 08:59:11;;;;;;;0.90;0.60;;;19.30;43.00;;;;;;4947250;28;20454;-84
2023/01/15 09:01:37;;;;;;;1.03;0.60;;;19.30;43.00;;;;;;4955989;28;20963;-83
2023/01/15 09:04:05;;;;;;;0.80;0.60;;;19.30;43.00;;;;;;4956111;28;20226;-84
2023/01/15 09:06:30;;;;;;;2.20;0.70;;;19.30;43.00;;;;;;4939540;28;20638;-84
2023/01/15 09:08:58;;;;;;;0.70;0.50;;;19.30;43.00;;;;;;4940553;28;20467;-84
2023/01/15 09:11:24;;;;;;;0.80;0.70;;;19.30;43.10;;;;;;4941859;28;20244;-85
2023/01/15 09:13:50;;;;;;;0.70;0.60;;;19.30;43.00;;;;;;4927550;28;20471;-85
2023/01/15 09:16:17;;;;;;;1.00;0.67;;;19.30;43.00;;;;;;4951076;28;20294;-85
2023/01/15 09:18:42;;;;;;;2.00;0.80;;;19.30;43.00;;;;;;4949300;28;20438;-85
2023/01/15 09:21:08;;;;;;;0.80;0.60;;;19.30;43.10;;;;;;4932124;28;20786;-84
2023/01/15 09:23:34;;;;;;;4.23;0.70;;;19.30;43.00;;;;;;4959421;28;20224;-85
2023/01/15 09:26:01;;;;;;;4.00;0.70;;;19.30;43.10;;;;;;4963639;28;20311;-84
2023/01/15 09:28:31;;;;;;;0.87;0.70;;;19.30;43.00;;;;;;4951573;28;20296;-84
2023/01/15 09:30:56;;;;;;;1.90;0.80;;;19.30;43.00;;;;;;4941758;28;20457;-84
2023/01/15 09:33:22;;;;;;;0.70;0.60;;;19.30;42.90;;;;;;4939005;28;20991;-84
2023/01/15 09:35:48;;;;;;;0.70;0.60;;;19.30;43.00;;;;;;4939846;28;20217;-85
2023/01/15 09:38:16;;;;;;;0.90;0.73;;;19.30;43.00;;;;;;4939811;28;20235;-84
2023/01/15 09:40:59;;;;;;;0.83;0.67;;;19.30;43.00;;;;;;4947423;28;20220;-84
2023/01/15 09:43:54;;;;;;;1.83;0.70;;;19.30;43.00;;;;;;4961951;28;20482;-84
2023/01/15 09:46:28;;;;;;;0.93;0.57;;;19.30;43.00;;;;;;4954132;28;20464;-84
2023/01/15 09:49:36;;;;;;;0.97;0.80;;;19.20;43.00;;;;;;4949170;28;21467;-84
2023/01/15 09:52:24;;;;;;;0.90;0.70;;;19.30;43.10;;;;;;4952908;28;20794;-84
2023/01/15 09:55:04;;;;;;;0.80;0.50;;;19.20;43.00;;;;;;4955413;28;20452;-84
2023/01/15 09:57:31;;;;;;;1.53;0.77;;;19.20;43.00;;;;;;4934865;28;20501;-84
2023/01/15 10:00:02;;;;;;;0.80;0.70;;;19.20;43.00;;;;;;4950548;28;20440;-84
2023/01/15 10:02:41;;;;;;;0.80;0.77;;;19.20;43.00;;;;;;4945341;28;20468;-84
2023/01/15 10:05:26;;;;;;;0.70;0.60;;;19.20;43.00;;;;;;4950601;28;20475;-83
2023/01/15 10:08:25;;;;;;;1.00;0.60;;;19.20;43.00;;;;;;4949265;28;20474;-84
2023/01/15 10:11:18;;;;;;;0.70;0.60;;;19.20;43.00;;;;;;4923174;28;20471;-84
2023/01/15 10:14:03;;;;;;;1.03;0.60;;;19.20;43.00;;;;;;4954517;28;20469;-84
2023/01/15 10:16:32;;;;;;;7.30;2.60;;;19.20;43.00;;;;;;4959469;28;20461;-84
2023/01/15 10:19:01;;;;;;;2.97;0.70;;;19.20;43.00;;;;;;4955668;28;20459;-84
2023/01/15 10:21:32;;;;;;;0.90;0.60;;;19.20;43.00;;;;;;4962022;28;20442;-84
2023/01/15 10:24:05;;;;;;;0.80;0.60;;;19.20;43.00;;;;;;4927433;28;20676;-84
2023/01/15 10:26:54;;;;;;;1.30;0.67;;;19.20;42.90;;;;;;4944610;28;20970;-84
2023/01/15 10:29:27;;;;;;;0.80;0.60;;;19.20;42.90;;;;;;4937324;28;20953;-84
2023/01/15 10:32:02;;;;;;;0.73;0.60;;;19.20;43.00;;;;;;4958994;28;20532;-84
2023/01/15 10:34:49;;;;;;;1.30;0.67;;;19.20;42.90;;;;;;4968111;28;20539;-84
2023/01/15 10:37:25;;;;;;;0.70;0.60;;;19.20;42.90;;;;;;4947167;28;20439;-84
2023/01/15 10:40:02;;;;;;;0.70;0.60;;;19.20;42.90;;;;;;4950312;28;20434;-84
2023/01/15 10:42:47;;;;;;;1.00;0.70;;;19.20;42.90;;;;;;4962699;28;20408;-84
2023/01/15 10:45:19;;;;;;;1.00;0.80;;;19.20;42.90;;;;;;4957224;28;20466;-84
2023/01/15 10:47:49;;;;;;;1.27;0.83;;;19.20;42.80;;;;;;4954636;28;20561;-84
2023/01/15 10:50:18;;;;;;;0.73;0.60;;;19.20;42.80;;;;;;4955686;28;20475;-84
2023/01/15 10:52:51;;;;;;;1.43;0.60;;;19.20;42.90;;;;;;4941952;28;21872;-84
2023/01/15 10:55:31;;;;;;;0.80;0.73;;;19.20;42.80;;;;;;4965714;28;20501;-84
2023/01/15 10:58:10;;;;;;;1.13;0.60;;;19.20;42.80;;;;;;4966918;28;20440;-84
2023/01/15 11:00:38;;;;;;;1.60;0.73;;;19.30;42.90;;;;;;4956990;28;20456;-84
2023/01/15 11:03:16;;;;;;;1.10;0.70;;;19.30;42.80;;;;;;4942225;28;20606;-84
2023/01/15 11:05:45;;;;;;;1.17;0.80;;;19.30;42.80;;;;;;4955038;28;20444;-85
2023/01/15 11:08:27;;;;;;;1.00;0.60;;;19.30;42.80;;;;;;4952203;28;20449;-84
2023/01/15 11:10:52;;;;;;;0.87;0.70;;;19.30;42.70;;;;;;4965287;28;20597;-85
2023/01/15 11:21:47;;;;;;;1.07;0.50;;;19.20;42.80;;;;;;4941957;28;20484;-84
2023/01/15 11:24:15;;;;;;;1.10;0.83;;;19.20;42.70;;;;;;4955424;28;21085;-85
2023/01/15 11:26:46;;;;;;;0.70;0.60;;;19.20;42.80;;;;;;4951700;28;21002;-85
2023/01/15 11:29:28;;;;;;;1.20;0.93;;;19.20;42.70;;;;;;4956740;28;20970;-85
2023/01/15 11:31:54;;;;;;;0.90;0.60;;;19.20;42.70;;;;;;4960524;28;22694;-85
2023/01/15 11:34:20;;;;;;;1.80;0.70;;;19.20;42.70;;;;;;4960035;28;21063;-85
2023/01/15 11:36:47;;;;;;;0.90;0.60;;;19.20;42.70;;;;;;4965639;28;20287;-85
2023/01/15 11:39:25;;;;;;;0.80;0.60;;;19.20;42.70;;;;;;4960663;28;20553;-86
2023/01/15 11:50:51;;;;;;;0.83;0.70;;;19.20;42.70;;;;;;4957472;28;20948;-87
2023/01/15 11:53:22;;;;;;;1.10;0.90;;;19.20;42.80;;;;;;4957209;28;20485;-85
2023/01/15 11:56:01;;;;;;;1.17;0.80;;;19.20;42.70;;;;;;4964420;28;20501;-86
2023/01/15 11:58:31;;;;;;;1.00;0.80;;;19.20;42.70;;;;;;4962103;28;20454;-85
2023/01/15 12:00:58;;;;;;;0.70;0.60;;;19.20;42.80;;;;;;4952823;28;20461;-85
2023/01/15 12:03:28;;;;;;;1.93;1.00;;;19.20;42.70;;;;;;4952262;28;20493;-85
2023/01/15 12:05:58;;;;;;;0.87;0.70;;;19.20;42.70;;;;;;4955683;28;21139;-85
2023/01/15 12:08:48;;;;;;;1.43;0.93;;;19.20;42.70;;;;;;4942695;28;20447;-85
2023/01/15 12:11:41;;;;;;;2.30;0.70;;;19.30;42.80;;;;;;4952895;28;20479;-85
2023/01/15 12:14:34;;;;;;;4.73;0.80;;;19.20;42.70;;;;;;4952522;28;20470;-85
2023/01/15 12:17:27;;;;;;;2.20;0.70;;;19.20;42.70;;;;;;4944601;28;20459;-83
2023/01/15 12:20:15;;;;;;;1.07;0.77;;;19.20;42.80;;;;;;4957227;28;20487;-85
2023/01/15 12:23:05;;;;;;;2.73;1.00;;;19.20;42.80;;;;;;4946933;28;20438;-85
2023/01/15 12:25:56;;;;;;;3.10;1.03;;;19.20;42.70;;;;;;4963290;28;20471;-85
2023/01/15 12:28:30;;;;;;;0.90;0.80;;;19.20;42.80;;;;;;4954216;28;20467;-85
2023/01/15 12:31:29;;;;;;;1.10;1.00;;;19.20;42.70;;;;;;4961033;28;20450;-85
2023/01/15 12:34:21;;;;;;;1.37;0.90;;;19.20;42.70;;;;;;4923092;28;20547;-85
2023/01/15 12:37:19;;;;;;;2.43;0.90;;;19.20;42.70;;;;;;4945231;28;20463;-85
2023/01/15 12:40:13;;;;;;;1.10;0.77;;;19.20;42.70;;;;;;4942497;28;20463;-85
2023/01/15 12:45:32;;;;;;;1.00;0.73;;;19.20;42.70;;;;;;4962080;28;20458;-85
2023/01/15 12:48:16;;;;;;;1.77;0.90;;;19.20;42.70;;;;;;4957108;28;20479;-85
2023/01/15 12:50:50;;;;;;;1.83;0.90;;;19.20;42.70;;;;;;4952346;28;20473;-85
2023/01/15 12:53:37;;;;;;;3.03;1.40;;;19.20;42.70;;;;;;4944436;28;20455;-84
2023/01/15 12:56:19;;;;;;;1.13;0.80;;;19.20;42.60;;;;;;4955763;28;20462;-85
2023/01/15 12:59:03;;;;;;;3.97;1.30;;;19.20;42.60;;;;;;4941474;28;20462;-84
2023/01/15 13:01:41;;;;;;;5.70;1.13;;;19.20;42.60;;;;;;4956063;28;21060;-84
2023/01/15 13:04:11;;;;;;;1.77;1.00;;;19.20;42.60;;;;;;4955105;28;21101;-85
2023/01/15 13:06:43;;;;;;;29.07;6.93;;;19.20;42.60;;;;;;4958069;28;20605;-85
2023/01/15 13:09:27;;;;;;;15.00;3.70;;;19.30;42.60;;;;;;4957614;28;20466;-86
2023/01/15 13:11:53;;;;;;;9.63;2.97;;;19.30;42.50;;;;;;4963977;28;20977;-84
2023/01/15 13:14:21;;;;;;;17.33;4.50;;;19.30;42.20;;;;;;4965353;28;20441;-84
2023/01/15 13:16:59;;;;;;;12.97;3.67;;;19.30;42.10;;;;;;4967573;28;20232;-85
2023/01/15 13:19:38;;;;;;;41.40;9.40;;;19.30;41.60;;;;;;4949183;28;20730;-85
2023/01/15 13:22:16;;;;;;;100.63;16.40;;;19.40;41.50;;;;;;4947573;28;20451;-85
2023/01/15 13:25:04;;;;;;;51.23;14.63;;;19.40;41.10;;;;;;4956570;28;20447;-85
2023/01/15 13:28:12;;;;;;;29.93;8.97;;;19.40;41.00;;;;;;4954081;28;20478;-83
2023/01/15 13:30:54;;;;;;;25.57;6.70;;;19.50;40.80;;;;;;4944140;28;20448;-84
2023/01/15 13:33:32;;;;;;;21.20;6.07;;;19.50;40.50;;;;;;4950143;28;20520;-85
2023/01/15 13:36:24;;;;;;;17.47;4.60;;;19.50;40.30;;;;;;4956076;28;20435;-85
2023/01/15 13:38:54;;;;;;;20.13;3.20;;;19.50;40.20;;;;;;4963697;28;20477;-85
2023/01/15 13:44:36;;;;;;;5.70;3.07;;;19.50;39.90;;;;;;4963792;28;20461;-85
2023/01/15 13:47:11;;;;;;;6.93;2.87;;;19.50;39.80;;;;;;4967802;28;20478;-85
2023/01/15 13:49:45;;;;;;;4.07;1.63;;;19.60;39.80;;;;;;4959427;28;21953;-85
2023/01/15 13:52:25;;;;;;;7.93;2.97;;;19.60;39.90;;;;;;4965399;28;20457;-86
2023/01/15 13:54:54;;;;;;;3.20;1.90;;;19.60;39.90;;;;;;4962082;28;20492;-86
2023/01/15 13:57:40;;;;;;;2.57;2.37;;;19.60;39.90;;;;;;4965145;28;20471;-85